Terminal Aerodrome Forecast
Issued by NWS Wilmington, OH

Current Version | Previous Version | Graphics & Text | Print | Product List | Glossary On
Versions: 1 2 3 4 5 6 7 8 9 10 11 12 13 14 15 16 17 18 19 20 21 22 23 24 25 26
051
FTUS41 KILN 281125
TAFCMH
TAF
KCMH 281125Z 2812/2912 07008KT P6SM OVC018
     FM282000 02006KT P6SM VCSH BKN018 OVC025
     FM290000 35004KT P6SM BKN025
     FM290300 34004KT P6SM OVC007
     FM290700 34003KT 4SM BR OVC004=

USA.gov is the U.S. government's official web portal to all federal, state and local government web resources and services.